East Brookfield, Massachusetts
Current Conditions -  °F | °C
As of 12:54 PM on Wednesday 28 Jan 2015 (Local Time) from KORH Reporting Station
Few Clouds Few Clouds  
Wind Chill:   Ceiling: Unl
Heat Index: 18°   Visibility: 10mi
Dew Point:   Wind: 18mph
Humidity: 60%   Direction: 340°NNW
Pressure: 29.91"   Gusts: 28mph
Location:  42.23°N, 72.05°W
Report Text: KORH 281754Z 34016G24KT 10SM FEW110 M08/M14 A2991 RMK AO2 SLP149 T10781144 11078 21133 53006
Loading
Personal Weather Stations






























Interactive Weather Map New forecast layout! Learn more

10-Day Weather Forecast

Advertisements
Track Severe Weather on mobile